createdAt,value
2018-05-21T00:00:05.060Z,2.40
2018-05-21T00:02:16.118Z,2.27
2018-05-21T00:04:27.206Z,2.60
2018-05-21T00:06:38.259Z,2.37
2018-05-21T00:08:49.590Z,2.57
2018-05-21T00:11:00.758Z,2.33
2018-05-21T00:13:11.838Z,2.63
2018-05-21T00:15:23.033Z,2.60
2018-05-21T00:17:36.362Z,2.70
2018-05-21T00:19:47.518Z,2.67
2018-05-21T00:21:58.557Z,2.67
2018-05-21T00:24:09.610Z,2.37
2018-05-21T00:26:20.736Z,2.47
2018-05-21T00:28:31.798Z,2.33
2018-05-21T00:30:43.067Z,2.53
2018-05-21T00:32:54.135Z,2.57
2018-05-21T00:35:05.238Z,2.77
2018-05-21T00:37:16.314Z,2.63
2018-05-21T00:39:27.402Z,2.60
2018-05-21T00:41:38.466Z,3.30
2018-05-21T00:43:49.518Z,2.80
2018-05-21T00:46:00.694Z,2.73
2018-05-21T00:48:11.793Z,2.60
2018-05-21T00:50:22.936Z,2.17
2018-05-21T00:52:34.051Z,2.87
2018-05-21T00:54:57.335Z,3.07
2018-05-21T00:57:08.460Z,2.63
2018-05-21T00:59:19.594Z,2.80
2018-05-21T01:01:30.687Z,3.00
2018-05-21T01:03:41.749Z,2.70
2018-05-21T01:05:52.837Z,2.77
2018-05-21T01:08:03.924Z,2.87
2018-05-21T01:10:15.018Z,2.80
2018-05-21T01:12:26.149Z,2.23
2018-05-21T01:14:37.297Z,2.97
2018-05-21T01:16:48.354Z,2.70
2018-05-21T01:18:59.465Z,3.10
2018-05-21T01:21:10.631Z,2.63
2018-05-21T01:23:21.718Z,2.20
2018-05-21T01:25:32.811Z,2.73
2018-05-21T01:27:43.909Z,2.43
2018-05-21T01:29:54.969Z,3.10
2018-05-21T01:32:06.039Z,2.50
2018-05-21T01:34:17.182Z,2.20
2018-05-21T01:36:28.266Z,2.20
2018-05-21T01:38:39.550Z,2.10
2018-05-21T01:40:50.591Z,1.90
2018-05-21T01:43:01.657Z,3.10
2018-05-21T01:45:12.787Z,2.90
2018-05-21T01:47:23.842Z,3.20
2018-05-21T01:49:35.003Z,2.80
2018-05-21T01:51:46.049Z,3.17
2018-05-21T01:53:57.134Z,3.53
2018-05-21T01:56:08.247Z,3.70
2018-05-21T01:58:19.293Z,3.03
2018-05-21T02:00:30.366Z,3.73
2018-05-21T02:02:41.442Z,3.73
2018-05-21T02:04:52.516Z,3.20
2018-05-21T02:07:03.629Z,3.60
2018-05-21T02:09:14.690Z,3.30
2018-05-21T02:11:25.829Z,3.67
2018-05-21T02:13:36.934Z,3.13
2018-05-21T02:15:48.038Z,3.67
2018-05-21T02:17:59.120Z,3.67
2018-05-21T02:20:10.178Z,3.77
2018-05-21T02:22:21.318Z,3.60
2018-05-21T02:24:32.389Z,3.20
2018-05-21T02:26:43.537Z,3.13
2018-05-21T02:28:54.622Z,3.37
2018-05-21T02:31:05.714Z,3.10
2018-05-21T02:33:16.794Z,4.10
2018-05-21T02:35:27.868Z,3.77
2018-05-21T02:37:39.062Z,4.00
2018-05-21T02:39:50.112Z,4.03
2018-05-21T02:42:01.227Z,3.97
2018-05-21T02:44:12.315Z,3.90
2018-05-21T02:46:23.446Z,3.90
2018-05-21T02:48:34.522Z,4.03
2018-05-21T02:50:45.634Z,3.87
2018-05-21T02:52:56.733Z,4.30
2018-05-21T02:55:07.801Z,3.93
2018-05-21T02:57:18.869Z,3.60
2018-05-21T02:59:30.039Z,4.30
2018-05-21T03:01:41.142Z,4.10
2018-05-21T03:03:52.185Z,3.83
2018-05-21T03:06:03.258Z,4.00
2018-05-21T03:08:14.340Z,4.10
2018-05-21T03:10:25.474Z,3.73
2018-05-21T03:12:36.529Z,4.50
2018-05-21T03:14:47.666Z,4.10
2018-05-21T03:16:58.736Z,3.97
2018-05-21T03:19:09.826Z,4.27
2018-05-21T03:21:20.869Z,4.63
2018-05-21T03:23:31.938Z,4.13
2018-05-21T03:25:43.022Z,4.00
2018-05-21T03:27:54.108Z,4.47
2018-05-21T03:30:05.283Z,3.60
2018-05-21T03:32:16.357Z,4.53
2018-05-21T03:34:27.477Z,4.70
2018-05-21T03:36:39.444Z,4.40
2018-05-21T03:38:50.529Z,4.43
2018-05-21T03:41:01.738Z,4.80
2018-05-21T03:43:12.778Z,4.40
2018-05-21T03:45:23.957Z,4.70
2018-05-21T03:47:35.030Z,4.67
2018-05-21T03:49:46.065Z,4.67
2018-05-21T03:51:57.133Z,5.03
2018-05-21T03:54:08.177Z,4.60
2018-05-21T03:56:19.252Z,4.80
2018-05-21T03:58:42.618Z,4.80
2018-05-21T04:01:05.915Z,4.37
2018-05-21T04:03:29.182Z,3.60
2018-05-21T04:05:40.470Z,4.70
2018-05-21T04:07:51.640Z,4.47
2018-05-21T04:10:02.729Z,4.67
2018-05-21T04:12:13.921Z,3.63
2018-05-21T04:14:25.006Z,4.37
2018-05-21T04:16:36.153Z,5.23
2018-05-21T04:18:47.249Z,4.07
2018-05-21T04:20:58.234Z,4.10
2018-05-21T04:23:09.325Z,4.70
2018-05-21T04:25:20.547Z,4.60
2018-05-21T04:27:31.662Z,5.50
2018-05-21T04:29:42.761Z,4.67
2018-05-21T04:31:53.800Z,4.60
2018-05-21T04:34:04.886Z,4.17
2018-05-21T04:36:15.958Z,4.10
2018-05-21T04:38:27.015Z,4.83
2018-05-21T04:40:38.206Z,4.83
2018-05-21T04:42:49.423Z,4.93
2018-05-21T04:45:00.585Z,4.70
2018-05-21T04:47:11.672Z,4.10
2018-05-21T04:49:22.735Z,4.37
2018-05-21T04:51:33.870Z,4.63
2018-05-21T04:53:44.913Z,4.20
2018-05-21T04:55:55.990Z,4.80
2018-05-21T04:58:07.041Z,5.83
2018-05-21T05:00:18.178Z,4.63
2018-05-21T05:02:29.254Z,3.93
2018-05-21T05:04:40.318Z,4.37
2018-05-21T05:06:51.390Z,4.10
2018-05-21T05:09:02.418Z,4.53
2018-05-21T05:11:13.498Z,4.30
2018-05-21T05:13:24.561Z,4.10
2018-05-21T05:15:35.650Z,4.77
2018-05-21T05:17:46.785Z,4.60
2018-05-21T05:19:57.909Z,4.83
2018-05-21T05:22:08.978Z,3.97
2018-05-21T05:24:20.019Z,4.30
2018-05-21T05:26:31.168Z,5.23
2018-05-21T05:28:43.643Z,3.60
2018-05-21T05:30:54.863Z,4.30
2018-05-21T05:33:06.789Z,5.70
2018-05-21T05:35:17.865Z,4.77
2018-05-21T05:37:28.959Z,4.70
2018-05-21T05:39:40.134Z,4.53
2018-05-21T05:41:51.186Z,4.77
2018-05-21T05:44:02.338Z,4.60
2018-05-21T05:46:13.382Z,4.50
2018-05-21T05:48:24.454Z,4.23
2018-05-21T05:50:35.565Z,3.83
2018-05-21T05:52:46.660Z,4.40
2018-05-21T05:54:57.831Z,5.13
2018-05-21T05:57:08.930Z,5.00
2018-05-21T05:59:20.122Z,5.10
2018-05-21T06:01:31.235Z,4.80
2018-05-21T06:03:42.328Z,4.43
2018-05-21T06:05:53.429Z,5.00
2018-05-21T06:08:04.484Z,4.47
2018-05-21T06:10:15.593Z,4.60
2018-05-21T06:12:26.757Z,5.07
2018-05-21T06:14:37.861Z,5.03
2018-05-21T06:16:48.973Z,4.27
2018-05-21T06:19:00.200Z,5.20
2018-05-21T06:21:11.279Z,4.77
2018-05-21T06:23:22.322Z,5.30
2018-05-21T06:25:33.378Z,4.87
2018-05-21T06:27:44.473Z,5.50
2018-05-21T06:29:55.548Z,5.20
2018-05-21T06:32:06.707Z,4.83
2018-05-21T06:34:17.792Z,5.83
2018-05-21T06:36:28.858Z,4.80
2018-05-21T06:38:39.920Z,5.27
2018-05-21T06:40:50.977Z,4.90
2018-05-21T06:43:02.138Z,5.27
2018-05-21T06:45:13.188Z,5.27
2018-05-21T06:47:24.314Z,5.03
2018-05-21T06:49:35.385Z,5.10
2018-05-21T06:51:46.567Z,4.70
2018-05-21T06:53:57.642Z,5.13
2018-05-21T06:56:08.697Z,5.50
2018-05-21T06:58:19.790Z,4.33
2018-05-21T07:00:30.827Z,4.93
2018-05-21T07:02:41.980Z,5.50
2018-05-21T07:04:53.051Z,5.47
2018-05-21T07:07:04.155Z,5.43
2018-05-21T07:09:15.214Z,4.83
2018-05-21T07:11:26.416Z,5.93
2018-05-21T07:13:37.520Z,5.07
2018-05-21T07:15:48.677Z,5.97
2018-05-21T07:17:59.771Z,5.23
2018-05-21T07:20:10.830Z,5.13
2018-05-21T07:22:21.970Z,5.60
2018-05-21T07:24:33.232Z,5.23
2018-05-21T07:26:44.283Z,4.80
2018-05-21T07:28:55.391Z,5.37
2018-05-21T07:31:06.574Z,5.80
2018-05-21T07:33:17.679Z,5.80
2018-05-21T07:35:28.768Z,5.60
2018-05-21T07:37:39.854Z,5.70
2018-05-21T07:39:51.029Z,5.43
2018-05-21T07:42:02.134Z,5.70
2018-05-21T07:44:13.235Z,5.27
2018-05-21T07:46:24.510Z,5.90
2018-05-21T07:48:35.602Z,5.77
2018-05-21T07:50:46.811Z,5.03
2018-05-21T07:52:57.876Z,5.30
2018-05-21T07:55:08.948Z,5.00
2018-05-21T07:57:20.082Z,5.43
2018-05-21T07:59:31.130Z,5.03
2018-05-21T08:01:42.335Z,5.40
2018-05-21T08:03:53.382Z,5.10
2018-05-21T08:06:04.548Z,5.60
2018-05-21T08:08:15.775Z,5.80
2018-05-21T08:10:26.911Z,5.33
2018-05-21T08:12:42.233Z,5.57
2018-05-21T08:14:54.082Z,5.60
2018-05-21T08:17:05.143Z,5.47
2018-05-21T08:19:16.506Z,5.93
2018-05-21T08:21:27.594Z,5.53
2018-05-21T08:23:38.865Z,5.37
2018-05-21T08:25:50.010Z,5.17
2018-05-21T08:28:01.091Z,5.57
2018-05-21T08:30:12.141Z,4.47
2018-05-21T08:32:23.276Z,5.43
2018-05-21T08:34:34.394Z,5.07
2018-05-21T08:36:45.510Z,5.50
2018-05-21T08:38:56.624Z,5.23
2018-05-21T08:41:07.686Z,5.23
2018-05-21T08:43:18.833Z,5.53
2018-05-21T08:45:35.271Z,5.80
2018-05-21T08:50:08.825Z,4.60
2018-05-21T08:52:20.526Z,5.13
2018-05-21T08:54:32.011Z,5.37
2018-05-21T08:56:43.331Z,5.10
2018-05-21T08:58:54.491Z,4.97
2018-05-21T09:01:05.603Z,5.10
2018-05-21T09:03:16.733Z,5.17
2018-05-21T09:05:27.797Z,4.80
2018-05-21T09:07:38.913Z,5.20
2018-05-21T09:09:50.181Z,4.67
2018-05-21T09:12:01.301Z,5.10
2018-05-21T09:14:12.434Z,4.97
2018-05-21T09:16:23.653Z,5.00
2018-05-21T09:18:34.671Z,4.50
2018-05-21T09:20:45.781Z,4.80
2018-05-21T09:22:56.912Z,4.33
2018-05-21T09:25:08.026Z,5.10
2018-05-21T09:27:19.134Z,5.00
2018-05-21T09:29:30.237Z,4.70
2018-05-21T09:31:41.459Z,4.47
2018-05-21T09:33:52.575Z,4.70
2018-05-21T09:36:03.668Z,4.83
2018-05-21T09:38:14.811Z,4.67
2018-05-21T09:40:25.857Z,4.27
2018-05-21T09:42:37.101Z,4.90
2018-05-21T09:44:48.226Z,4.87
2018-05-21T09:46:59.476Z,4.40
2018-05-21T09:49:10.603Z,5.30
2018-05-21T09:51:21.766Z,4.43
2018-05-21T09:53:33.010Z,4.60
2018-05-21T09:55:44.082Z,4.63
2018-05-21T09:57:55.161Z,4.60
2018-05-21T10:00:06.250Z,4.37
2018-05-21T10:02:17.327Z,4.80
2018-05-21T10:04:28.421Z,5.30
2018-05-21T10:06:39.639Z,4.53
2018-05-21T10:08:50.782Z,5.10
2018-05-21T10:11:01.886Z,4.80
2018-05-21T10:13:13.030Z,4.97
2018-05-21T10:15:24.130Z,5.00
2018-05-21T10:17:35.222Z,4.20
2018-05-21T10:19:46.336Z,4.73
2018-05-21T10:21:57.414Z,4.40
2018-05-21T10:24:08.540Z,3.80
2018-05-21T10:26:19.613Z,4.50
2018-05-21T10:28:30.803Z,4.60
2018-05-21T10:30:41.907Z,4.83
2018-05-21T10:32:52.996Z,4.97
2018-05-21T10:35:04.088Z,5.50
2018-05-21T10:37:15.164Z,5.83
2018-05-21T10:39:26.291Z,6.87
2018-05-21T10:41:37.472Z,7.30
2018-05-21T10:43:48.590Z,8.50
2018-05-21T10:45:59.755Z,18.13
2018-05-21T10:48:10.851Z,13.77
2018-05-21T10:50:21.986Z,13.20
2018-05-21T10:52:33.038Z,5.43
2018-05-21T10:54:44.138Z,5.70
2018-05-21T10:56:55.234Z,5.10
2018-05-21T10:59:06.319Z,5.20
2018-05-21T11:01:17.428Z,5.30
2018-05-21T11:03:28.487Z,4.57
2018-05-21T11:05:39.628Z,4.00
2018-05-21T11:07:51.435Z,4.67
2018-05-21T11:10:03.515Z,4.90
2018-05-21T11:12:16.667Z,4.60
2018-05-21T11:14:28.110Z,4.37
2018-05-21T11:16:39.211Z,4.37
2018-05-21T11:18:50.314Z,4.70
2018-05-21T11:21:01.524Z,4.10
2018-05-21T11:23:12.596Z,4.33
2018-05-21T11:25:23.803Z,3.70
2018-05-21T11:27:34.872Z,5.13
2018-05-21T11:29:46.875Z,3.80
2018-05-21T11:31:58.076Z,3.97
2018-05-21T11:34:09.865Z,5.80
2018-05-21T11:36:21.575Z,4.30
2018-05-21T11:38:34.252Z,3.90
2018-05-21T11:40:45.364Z,4.30
2018-05-21T11:42:56.506Z,3.77
2018-05-21T11:45:07.578Z,4.67
2018-05-21T11:47:18.727Z,3.70
2018-05-21T11:49:31.152Z,3.73
2018-05-21T11:51:42.209Z,4.07
2018-05-21T11:53:53.287Z,3.83
2018-05-21T11:56:04.846Z,3.07
2018-05-21T11:58:16.050Z,3.70
2018-05-21T12:00:27.157Z,3.87
2018-05-21T12:02:38.337Z,3.73
2018-05-21T12:04:49.461Z,3.60
2018-05-21T12:07:00.541Z,4.37
2018-05-21T12:09:12.319Z,4.50
2018-05-21T12:11:23.473Z,4.17
2018-05-21T12:13:34.608Z,3.97
2018-05-21T12:15:45.778Z,3.70
2018-05-21T12:17:56.869Z,3.40
2018-05-21T12:20:07.952Z,3.80
2018-05-21T12:22:19.109Z,4.23
2018-05-21T12:24:30.185Z,4.50
2018-05-21T12:26:41.481Z,4.17
2018-05-21T12:28:52.594Z,4.00
2018-05-21T12:31:03.756Z,3.70
2018-05-21T12:33:14.854Z,4.47
2018-05-21T12:35:25.954Z,3.40
2018-05-21T12:37:37.075Z,5.00
2018-05-21T12:39:48.248Z,4.30
2018-05-21T12:41:59.254Z,3.77
2018-05-21T12:44:10.360Z,4.00
2018-05-21T12:46:21.525Z,3.90
2018-05-21T12:48:32.880Z,4.10
2018-05-21T12:50:43.985Z,3.80
2018-05-21T12:52:55.070Z,3.20
2018-05-21T12:55:06.131Z,3.40
2018-05-21T12:57:17.227Z,3.70
2018-05-21T12:59:29.035Z,3.53
2018-05-21T13:01:40.137Z,3.87
2018-05-21T13:03:51.442Z,3.80
2018-05-21T13:06:03.099Z,4.47
2018-05-21T13:08:15.042Z,4.43
2018-05-21T13:10:26.980Z,4.27
2018-05-21T13:12:38.098Z,3.80
2018-05-21T13:14:49.201Z,3.60
2018-05-21T13:17:00.351Z,3.60
2018-05-21T13:19:11.518Z,3.33
2018-05-21T13:21:22.641Z,3.50
2018-05-21T13:23:33.796Z,3.53
2018-05-21T13:25:46.061Z,3.13
2018-05-21T13:27:57.188Z,3.50
2018-05-21T13:30:09.020Z,3.93
2018-05-21T13:32:20.046Z,3.40
2018-05-21T13:34:31.182Z,3.30
2018-05-21T13:36:42.296Z,3.47
2018-05-21T13:38:53.397Z,3.63
2018-05-21T13:41:04.523Z,3.20
2018-05-21T13:43:15.650Z,3.03
2018-05-21T13:45:26.689Z,3.93
2018-05-21T13:47:37.824Z,3.73
2018-05-21T13:49:48.892Z,3.97
2018-05-21T13:52:00.089Z,3.07
2018-05-21T13:54:11.174Z,3.57
2018-05-21T13:56:22.281Z,3.57
2018-05-21T13:58:33.354Z,3.63
2018-05-21T14:00:44.512Z,3.83
2018-05-21T14:02:55.646Z,3.57
2018-05-21T14:05:06.726Z,3.23
2018-05-21T14:07:17.951Z,3.67
2018-05-21T14:09:29.040Z,3.53
2018-05-21T14:11:40.262Z,3.30
2018-05-21T14:13:51.370Z,3.83
2018-05-21T14:16:02.570Z,3.50
2018-05-21T14:18:13.709Z,3.23
2018-05-21T14:20:24.842Z,3.67
2018-05-21T14:22:35.998Z,3.10
2018-05-21T14:24:47.085Z,3.63
2018-05-21T14:26:58.181Z,3.97
2018-05-21T14:29:09.278Z,2.90
2018-05-21T14:31:20.352Z,3.57
2018-05-21T14:33:31.485Z,3.80
2018-05-21T14:35:42.623Z,3.30
2018-05-21T14:37:53.758Z,3.80
2018-05-21T14:40:04.922Z,3.73
2018-05-21T14:42:16.114Z,3.40
2018-05-21T14:44:27.203Z,3.30
2018-05-21T14:46:38.393Z,3.30
2018-05-21T14:48:49.494Z,4.07
2018-05-21T14:51:00.623Z,3.83
2018-05-21T14:53:11.742Z,3.83
2018-05-21T14:55:22.891Z,3.50
2018-05-21T14:57:33.982Z,4.03
2018-05-21T14:59:45.128Z,3.63
2018-05-21T15:01:56.266Z,3.20
2018-05-21T15:04:07.368Z,3.63
2018-05-21T15:06:18.538Z,3.77
2018-05-21T15:08:29.601Z,3.70
2018-05-21T15:10:40.725Z,3.57
2018-05-21T15:12:51.886Z,3.90
2018-05-21T15:15:03.026Z,3.80
2018-05-21T15:17:14.179Z,3.97
2018-05-21T15:19:25.259Z,3.77
2018-05-21T15:21:36.327Z,3.63
2018-05-21T15:23:47.417Z,3.20
2018-05-21T15:25:58.574Z,3.30
2018-05-21T15:28:09.673Z,3.50
2018-05-21T15:30:20.769Z,3.67
2018-05-21T15:32:31.931Z,3.60
2018-05-21T15:34:42.984Z,3.80
2018-05-21T15:36:54.203Z,3.63
2018-05-21T15:39:05.449Z,3.57
2018-05-21T15:41:16.717Z,3.93
2018-05-21T15:43:27.810Z,3.80
2018-05-21T15:45:38.884Z,3.40
2018-05-21T15:47:50.002Z,3.50
2018-05-21T15:50:01.089Z,5.07
2018-05-21T15:52:12.172Z,4.30
2018-05-21T15:54:23.248Z,4.70
2018-05-21T15:56:34.450Z,4.67
2018-05-21T15:58:45.528Z,5.37
2018-05-21T16:00:56.681Z,5.10
2018-05-21T16:03:07.745Z,7.47
2018-05-21T16:05:18.922Z,6.17
2018-05-21T16:07:30.012Z,6.90
2018-05-21T16:09:41.114Z,6.07
2018-05-21T16:11:52.241Z,2.60
2018-05-21T16:14:03.340Z,4.00
2018-05-21T16:16:14.505Z,4.13
2018-05-21T16:18:25.592Z,5.60
2018-05-21T16:20:36.687Z,3.67
2018-05-21T16:22:47.803Z,4.07
2018-05-21T16:24:58.875Z,4.70
2018-05-21T16:27:09.982Z,5.17
2018-05-21T16:29:21.058Z,5.50
2018-05-21T16:31:32.349Z,5.53
2018-05-21T16:33:43.480Z,4.80
2018-05-21T16:35:54.678Z,5.57
2018-05-21T16:38:05.816Z,6.00
2018-05-21T16:40:16.912Z,5.33
2018-05-21T16:42:27.997Z,6.03
2018-05-21T16:44:39.072Z,6.23
2018-05-21T16:46:50.240Z,4.73
2018-05-21T16:49:01.334Z,6.17
2018-05-21T16:51:12.475Z,6.03
2018-05-21T16:53:23.570Z,6.13
2018-05-21T16:55:34.850Z,5.57
2018-05-21T16:57:45.943Z,6.13
2018-05-21T16:59:57.074Z,6.13
2018-05-21T17:02:08.222Z,6.07
2018-05-21T17:04:19.310Z,6.80
2018-05-21T17:06:30.487Z,6.80
2018-05-21T17:08:41.630Z,6.73
2018-05-21T17:10:52.775Z,7.03
2018-05-21T17:13:03.853Z,7.20
2018-05-21T17:15:15.143Z,7.37
2018-05-21T17:17:26.320Z,6.77
2018-05-21T17:19:37.484Z,8.07
2018-05-21T17:21:48.687Z,7.80
2018-05-21T17:23:59.880Z,8.10
2018-05-21T17:26:11.074Z,7.00
2018-05-21T17:28:22.171Z,8.73
2018-05-21T17:30:33.236Z,8.57
2018-05-21T17:32:44.334Z,7.67
2018-05-21T17:34:55.394Z,7.20
2018-05-21T17:37:06.532Z,7.87
2018-05-21T17:39:17.667Z,7.23
2018-05-21T17:41:28.854Z,6.93
2018-05-21T17:43:39.970Z,7.40
2018-05-21T17:45:51.095Z,7.73
2018-05-21T17:48:02.251Z,8.50
2018-05-21T17:50:13.310Z,8.73
2018-05-21T17:52:24.397Z,8.07
2018-05-21T17:54:35.462Z,9.23
2018-05-21T17:56:46.559Z,8.57
2018-05-21T17:58:57.650Z,7.63
2018-05-21T18:01:08.794Z,6.90
2018-05-21T18:03:19.880Z,8.43
2018-05-21T18:05:31.094Z,8.47
2018-05-21T18:07:42.255Z,7.83
2018-05-21T18:09:53.373Z,9.13
2018-05-21T18:12:04.441Z,9.00
2018-05-21T18:14:15.514Z,8.50
2018-05-21T18:16:26.714Z,9.20
2018-05-21T18:18:37.850Z,9.03
2018-05-21T18:20:49.013Z,8.77
2018-05-21T18:23:00.066Z,8.40
2018-05-21T18:25:11.251Z,8.47
2018-05-21T18:27:22.342Z,8.40
2018-05-21T18:29:33.426Z,8.33
2018-05-21T18:31:44.535Z,8.40
2018-05-21T18:33:55.645Z,8.43
2018-05-21T18:36:06.906Z,8.07
2018-05-21T18:38:17.951Z,8.00
2018-05-21T18:40:29.118Z,8.27
2018-05-21T18:42:40.293Z,7.70
2018-05-21T18:44:51.354Z,8.13
2018-05-21T18:47:02.418Z,8.07
2018-05-21T18:49:13.483Z,8.13
2018-05-21T18:51:24.545Z,7.77
2018-05-21T18:53:35.669Z,7.83
2018-05-21T18:55:46.895Z,7.30
2018-05-21T18:57:58.024Z,7.37
2018-05-21T19:00:09.116Z,7.17
2018-05-21T19:02:20.247Z,6.53
2018-05-21T19:04:31.367Z,6.17
2018-05-21T19:06:42.494Z,5.33
2018-05-21T19:08:53.595Z,5.07
2018-05-21T19:11:04.704Z,4.40
2018-05-21T19:13:15.817Z,5.07
2018-05-21T19:15:26.993Z,4.53
2018-05-21T19:17:38.118Z,4.53
2018-05-21T19:19:49.358Z,4.57
2018-05-21T19:22:01.406Z,4.73
2018-05-21T19:24:14.182Z,5.00
2018-05-21T19:26:25.277Z,4.20
2018-05-21T19:28:36.476Z,4.47
2018-05-21T19:30:47.705Z,3.73
2018-05-21T19:32:58.812Z,4.13
2018-05-21T19:35:09.933Z,4.40
2018-05-21T19:37:21.634Z,4.03
2018-05-21T19:39:32.768Z,4.00
2018-05-21T19:41:43.875Z,4.53
2018-05-21T19:43:54.948Z,3.63
2018-05-21T19:46:06.116Z,3.53
2018-05-21T19:48:17.266Z,3.10
2018-05-21T19:50:28.426Z,3.27
2018-05-21T19:52:39.585Z,2.90
2018-05-21T19:54:50.671Z,2.80
2018-05-21T19:57:01.782Z,3.17
2018-05-21T19:59:12.877Z,2.87
2018-05-21T20:01:23.973Z,2.63
2018-05-21T20:03:35.746Z,2.53
2018-05-21T20:05:46.807Z,2.50
2018-05-21T20:07:57.907Z,2.73
2018-05-21T20:10:08.982Z,2.93
2018-05-21T20:12:20.158Z,2.80
2018-05-21T20:14:31.412Z,2.70
2018-05-21T20:16:42.545Z,3.10
2018-05-21T20:18:53.660Z,2.80
2018-05-21T20:21:04.762Z,2.53
2018-05-21T20:23:16.000Z,2.87
2018-05-21T20:25:26.996Z,2.70
2018-05-21T20:27:38.068Z,3.00
2018-05-21T20:29:49.844Z,2.70
2018-05-21T20:32:00.934Z,2.70
2018-05-21T20:34:11.998Z,3.17
2018-05-21T20:36:23.119Z,3.80
2018-05-21T20:38:34.199Z,2.90
2018-05-21T20:40:45.315Z,2.90
2018-05-21T20:42:56.391Z,2.73
2018-05-21T20:45:07.490Z,2.90
2018-05-21T20:47:18.622Z,3.03
2018-05-21T20:49:29.713Z,3.70
2018-05-21T20:51:40.807Z,3.17
2018-05-21T20:53:51.888Z,3.03
2018-05-21T20:56:02.963Z,2.90
2018-05-21T20:58:14.112Z,2.60
2018-05-21T21:00:25.219Z,2.87
2018-05-21T21:02:36.374Z,2.83
2018-05-21T21:04:47.577Z,3.57
2018-05-21T21:06:58.674Z,3.20
2018-05-21T21:09:10.029Z,3.47
2018-05-21T21:11:21.129Z,3.63
2018-05-21T21:13:32.177Z,3.03
2018-05-21T21:15:43.259Z,3.17
2018-05-21T21:17:54.352Z,3.07
2018-05-21T21:20:05.639Z,4.23
2018-05-21T21:22:16.684Z,4.97
2018-05-21T21:24:27.786Z,4.27
2018-05-21T21:26:38.838Z,5.40
2018-05-21T21:28:50.191Z,5.60
2018-05-21T21:31:01.270Z,6.23
2018-05-21T21:33:12.334Z,4.57
2018-05-21T21:35:23.457Z,6.17
2018-05-21T21:37:34.724Z,5.37
2018-05-21T21:39:45.883Z,4.90
2018-05-21T21:41:56.954Z,4.77
2018-05-21T21:44:08.184Z,4.93
2018-05-21T21:46:19.251Z,3.43
2018-05-21T21:48:30.410Z,3.00
2018-05-21T21:50:41.506Z,3.20
2018-05-21T21:52:52.779Z,2.83
2018-05-21T21:55:03.848Z,3.10
2018-05-21T21:57:14.902Z,3.13
2018-05-21T21:59:25.962Z,3.10
2018-05-21T22:01:37.091Z,3.13
2018-05-21T22:03:48.174Z,2.80
2018-05-21T22:05:59.291Z,2.90
2018-05-21T22:08:10.359Z,2.90
2018-05-21T22:10:21.571Z,3.10
2018-05-21T22:12:32.666Z,3.63
2018-05-21T22:14:43.752Z,2.97
2018-05-21T22:16:54.860Z,2.97
2018-05-21T22:19:05.980Z,3.20
2018-05-21T22:21:17.066Z,3.00
2018-05-21T22:23:28.159Z,2.77
2018-05-21T22:25:39.288Z,3.17
2018-05-21T22:27:50.378Z,3.03
2018-05-21T22:30:01.484Z,3.47
2018-05-21T22:32:12.584Z,2.90
2018-05-21T22:34:23.648Z,3.17
2018-05-21T22:36:34.739Z,2.97
2018-05-21T22:38:45.890Z,3.30
2018-05-21T22:40:56.948Z,3.70
2018-05-21T22:43:08.094Z,3.40
2018-05-21T22:45:19.144Z,3.53
2018-05-21T22:47:30.187Z,3.70
2018-05-21T22:49:41.294Z,3.30
2018-05-21T22:51:52.394Z,2.70
2018-05-21T22:54:03.558Z,3.03
2018-05-21T22:56:14.638Z,2.60
2018-05-21T22:58:25.806Z,2.77
2018-05-21T23:00:36.894Z,2.63
2018-05-21T23:02:48.002Z,2.20
2018-05-21T23:04:59.059Z,2.90
2018-05-21T23:07:10.183Z,2.60
2018-05-21T23:09:21.286Z,2.63
2018-05-21T23:11:32.363Z,2.43
2018-05-21T23:13:43.675Z,2.40
2018-05-21T23:15:54.850Z,2.70
2018-05-21T23:18:05.993Z,2.30
2018-05-21T23:20:17.049Z,1.73
2018-05-21T23:22:40.359Z,2.93
2018-05-21T23:24:51.476Z,2.97
2018-05-21T23:27:02.722Z,2.97
2018-05-21T23:29:13.782Z,2.60
2018-05-21T23:31:24.887Z,3.03
2018-05-21T23:33:35.969Z,3.10
2018-05-21T23:35:47.043Z,3.10
2018-05-21T23:37:58.284Z,2.17
2018-05-21T23:40:09.338Z,2.47
2018-05-21T23:42:20.465Z,2.17
2018-05-21T23:44:31.658Z,2.13
2018-05-21T23:46:42.738Z,2.53
2018-05-21T23:48:53.834Z,2.67
2018-05-21T23:51:04.982Z,2.90
2018-05-21T23:53:15.938Z,3.17
2018-05-21T23:55:27.046Z,3.07
2018-05-21T23:57:38.174Z,2.70
2018-05-21T23:59:49.296Z,2.67
